Time,TemperatureF,DewpointF,PressureIn,WindDirection,WindDirectionDegrees,WindSpeedMPH,WindSpeedGustMPH,Humidity,HourlyPrecipIn,Conditions,Clouds,dailyrainin,SoftwareType,DateUTC
2013-02-02 00:00:00,7.2,5.4,30.17,West,271,0.0,0.0,92,0.00,,---,0.00,VWS V14.01,2013-02-02 05:00:00,
2013-02-02 00:05:00,7.3,5.5,30.17,West,271,0.0,0.0,92,0.00,,---,0.00,VWS V14.01,2013-02-02 05:05:00,
2013-02-02 00:10:00,7.4,5.6,30.17,West,271,0.0,0.0,92,0.00,,---,0.00,VWS V14.01,2013-02-02 05:10:00,
2013-02-02 00:15:00,7.5,5.7,30.17,West,271,0.0,0.0,92,0.00,,---,0.00,VWS V14.01,2013-02-02 05:15:00,
2013-02-02 00:20:00,7.6,5.8,30.17,West,271,0.0,0.0,92,0.00,,---,0.00,VWS V14.01,2013-02-02 05:20:00,
2013-02-02 00:25:00,7.8,6.0,30.17,West,271,0.0,0.0,92,0.00,,---,0.00,VWS V14.01,2013-02-02 05:25:00,
2013-02-02 00:30:00,8.1,6.5,30.17,West,271,0.0,0.0,93,0.00,,---,0.00,VWS V14.01,2013-02-02 05:30:00,
2013-02-02 00:35:00,8.3,6.7,30.17,West,271,0.0,0.0,93,0.00,,---,0.00,VWS V14.01,2013-02-02 05:35:00,
2013-02-02 00:40:00,8.6,7.0,30.17,West,271,0.0,0.0,93,0.00,,---,0.00,VWS V14.01,2013-02-02 05:40:00,
2013-02-02 00:45:00,8.8,7.2,30.17,West,271,0.0,0.0,93,0.00,,---,0.00,VWS V14.01,2013-02-02 05:45:00,
2013-02-02 00:50:00,9.1,7.5,30.17,West,271,0.0,0.0,93,0.00,,---,0.00,VWS V14.01,2013-02-02 05:50:00,
2013-02-02 00:55:00,9.4,7.8,30.17,West,271,0.0,0.0,93,0.00,,---,0.00,VWS V14.01,2013-02-02 05:55:00,
2013-02-02 01:00:00,9.6,8.0,30.16,West,271,0.0,0.0,93,0.00,,---,0.00,VWS V14.01,2013-02-02 06:00:00,
2013-02-02 01:05:00,9.8,8.4,30.16,West,271,0.0,0.0,94,0.00,,---,0.00,VWS V14.01,2013-02-02 06:05:00,
2013-02-02 01:10:00,10.1,8.7,30.16,West,271,0.0,0.0,94,0.00,,---,0.00,VWS V14.01,2013-02-02 06:10:00,
2013-02-02 01:15:00,10.3,8.9,30.15,West,271,0.0,0.0,94,0.00,,---,0.00,VWS V14.01,2013-02-02 06:15:00,
2013-02-02 01:20:00,10.6,9.2,30.15,West,271,0.0,0.0,94,0.00,,---,0.00,VWS V14.01,2013-02-02 06:20:00,
2013-02-02 01:25:00,10.8,9.4,30.15,West,271,0.0,0.0,94,0.00,,---,0.00,VWS V14.01,2013-02-02 06:25:00,
2013-02-02 01:30:00,11.2,9.8,30.14,West,271,0.0,0.0,94,0.00,,---,0.00,VWS V14.01,2013-02-02 06:30:00,
2013-02-02 01:35:00,11.6,10.2,30.14,West,271,0.0,0.0,94,0.00,,---,0.00,VWS V14.01,2013-02-02 06:35:00,
2013-02-02 01:40:00,12.0,10.6,30.14,West,271,0.0,0.0,94,0.00,,---,0.00,VWS V14.01,2013-02-02 06:40:00,
2013-02-02 01:45:00,12.4,11.0,30.14,West,271,0.0,0.0,94,0.00,,---,0.00,VWS V14.01,2013-02-02 06:45:00,
2013-02-02 01:50:00,12.7,11.3,30.14,West,271,0.0,0.0,94,0.00,,---,0.00,VWS V14.01,2013-02-02 06:50:00,
2013-02-02 01:55:00,13.0,11.6,30.14,West,271,0.0,0.0,94,0.00,,---,0.00,VWS V14.01,2013-02-02 06:55:00,
2013-02-02 02:00:00,13.3,11.9,30.13,West,271,0.0,0.0,94,0.00,,---,0.00,VWS V14.01,2013-02-02 07:00:00,
2013-02-02 02:05:00,13.5,12.1,30.13,West,271,0.0,0.0,94,0.00,,---,0.00,VWS V14.01,2013-02-02 07:05:00,
2013-02-02 02:10:00,13.8,12.4,30.13,West,271,0.0,0.0,94,0.00,,---,0.00,VWS V14.01,2013-02-02 07:10:00,
2013-02-02 02:15:00,14.0,12.6,30.13,West,271,0.0,0.0,94,0.00,,---,0.00,VWS V14.01,2013-02-02 07:15:00,
2013-02-02 02:20:00,14.2,12.8,30.13,West,271,0.0,0.0,94,0.00,,---,0.00,VWS V14.01,2013-02-02 07:20:00,
2013-02-02 02:25:00,14.4,13.0,30.13,West,271,0.0,0.0,94,0.00,,---,0.00,VWS V14.01,2013-02-02 07:25:00,
2013-02-02 02:30:00,14.6,13.2,30.12,West,271,0.0,0.0,94,0.00,,---,0.00,VWS V14.01,2013-02-02 07:30:00,
2013-02-02 02:35:00,14.8,13.4,30.12,West,271,0.0,0.0,94,0.00,,---,0.00,VWS V14.01,2013-02-02 07:35:00,
2013-02-02 02:40:00,14.9,13.5,30.12,West,271,0.0,0.0,94,0.00,,---,0.00,VWS V14.01,2013-02-02 07:40:00,
2013-02-02 02:45:00,15.0,13.6,30.12,West,271,0.0,0.0,94,0.00,,---,0.00,VWS V14.01,2013-02-02 07:45:00,
2013-02-02 02:50:00,15.1,13.7,30.12,West,271,0.0,0.0,94,0.00,,---,0.00,VWS V14.01,2013-02-02 07:50:00,
2013-02-02 02:55:00,15.3,13.9,30.12,West,271,0.0,0.0,94,0.00,,---,0.00,VWS V14.01,2013-02-02 07:55:00,
2013-02-02 03:00:00,15.3,13.9,30.11,West,271,0.0,0.0,94,0.00,,---,0.00,VWS V14.01,2013-02-02 08:00:00,
2013-02-02 03:06:00,15.4,14.0,30.11,West,271,0.0,0.0,94,0.00,,---,0.00,VWS V14.01,2013-02-02 08:06:00,
2013-02-02 03:11:00,15.5,14.1,30.11,West,271,0.0,0.0,94,0.00,,---,0.00,VWS V14.01,2013-02-02 08:11:00,
2013-02-02 03:16:00,15.6,14.2,30.11,West,271,0.0,0.0,94,0.00,,---,0.00,VWS V14.01,2013-02-02 08:16:00,
2013-02-02 03:21:00,15.7,14.3,30.11,West,271,0.0,0.0,94,0.00,,---,0.00,VWS V14.01,2013-02-02 08:21:00,
2013-02-02 03:26:00,15.8,14.4,30.11,West,271,0.0,0.0,94,0.00,,---,0.00,VWS V14.01,2013-02-02 08:26:00,
2013-02-02 03:31:00,15.9,14.5,30.09,West,271,0.0,0.0,94,0.00,,---,0.00,VWS V14.01,2013-02-02 08:31:00,
2013-02-02 03:36:00,16.0,14.6,30.09,West,271,0.0,0.0,94,0.00,,---,0.00,VWS V14.01,2013-02-02 08:36:00,
2013-02-02 03:41:00,16.0,14.6,30.09,West,271,0.0,0.0,94,0.00,,---,0.00,VWS V14.01,2013-02-02 08:41:00,
2013-02-02 03:46:00,16.2,14.8,30.09,West,271,0.0,0.0,94,0.00,,---,0.00,VWS V14.01,2013-02-02 08:46:00,
2013-02-02 03:51:00,16.3,14.9,30.09,WSW,258,0.0,0.0,94,0.00,,---,0.00,VWS V14.01,2013-02-02 08:51:00,
2013-02-02 03:56:00,16.3,14.9,30.09,SSE,165,0.0,0.0,94,0.00,,---,0.00,VWS V14.01,2013-02-02 08:56:00,
2013-02-02 04:01:00,16.4,15.0,30.08,SSE,165,0.0,0.0,94,0.00,,---,0.00,VWS V14.01,2013-02-02 09:01:00,
2013-02-02 04:06:00,16.4,15.0,30.08,SSE,165,0.0,0.0,94,0.00,,---,0.00,VWS V14.01,2013-02-02 09:06:00,
2013-02-02 04:11:00,16.5,15.1,30.08,SSE,165,0.0,0.0,94,0.00,,---,0.00,VWS V14.01,2013-02-02 09:11:00,
2013-02-02 04:16:00,16.5,15.1,30.06,SSE,165,0.0,0.0,94,0.00,,---,0.00,VWS V14.01,2013-02-02 09:16:00,
2013-02-02 04:21:00,16.6,15.2,30.06,SSE,165,0.0,0.0,94,0.00,,---,0.00,VWS V14.01,2013-02-02 09:21:00,
2013-02-02 04:26:00,16.6,15.2,30.06,SSE,164,0.0,0.0,94,0.00,,---,0.00,VWS V14.01,2013-02-02 09:26:00,
2013-02-02 04:31:00,16.7,15.3,30.04,SSE,164,0.0,0.0,94,0.00,,---,0.00,VWS V14.01,2013-02-02 09:31:00,
2013-02-02 04:36:00,16.7,15.3,30.04,SSE,164,0.0,0.0,94,0.00,,---,0.00,VWS V14.01,2013-02-02 09:36:00,
2013-02-02 04:41:00,16.7,15.3,30.04,SSE,164,0.0,0.0,94,0.00,,---,0.00,VWS V14.01,2013-02-02 09:41:00,
2013-02-02 04:46:00,16.7,15.3,30.04,SSE,164,0.0,0.0,94,0.00,,---,0.00,VWS V14.01,2013-02-02 09:46:00,
2013-02-02 04:51:00,16.8,15.4,30.04,SSE,164,0.0,0.0,94,0.00,,---,0.00,VWS V14.01,2013-02-02 09:51:00,
2013-02-02 04:56:00,16.8,15.4,30.04,SSE,164,0.0,0.0,94,0.00,,---,0.00,VWS V14.01,2013-02-02 09:56:00,
2013-02-02 05:01:00,16.9,15.5,30.03,SSE,164,0.0,0.0,94,0.00,,---,0.00,VWS V14.01,2013-02-02 10:01:00,
2013-02-02 05:06:00,16.9,15.5,30.03,SSE,164,0.0,0.0,94,0.00,,---,0.00,VWS V14.01,2013-02-02 10:06:00,
2013-02-02 05:11:00,17.0,15.6,30.03,SSE,164,0.0,0.0,94,0.00,,---,0.00,VWS V14.01,2013-02-02 10:11:00,
2013-02-02 05:16:00,17.0,15.6,30.03,SSE,164,0.0,0.0,94,0.00,,---,0.00,VWS V14.01,2013-02-02 10:16:00,
2013-02-02 05:21:00,17.1,15.7,30.03,SSE,164,0.0,0.0,94,0.00,,---,0.00,VWS V14.01,2013-02-02 10:21:00,
2013-02-02 05:26:00,17.2,15.8,30.03,SSE,164,0.0,0.0,94,0.00,,---,0.00,VWS V14.01,2013-02-02 10:26:00,
2013-02-02 05:31:00,17.2,15.8,30.01,SSE,164,0.0,0.0,94,0.00,,---,0.00,VWS V14.01,2013-02-02 10:31:00,
2013-02-02 05:36:00,17.3,15.9,30.01,SSE,164,0.0,0.0,94,0.00,,---,0.00,VWS V14.01,2013-02-02 10:36:00,
2013-02-02 05:41:00,17.4,16.0,30.01,SSE,164,0.0,0.0,94,0.00,,---,0.00,VWS V14.01,2013-02-02 10:41:00,
2013-02-02 05:46:00,17.5,16.1,30.01,SSE,164,0.0,0.0,94,0.00,,---,0.00,VWS V14.01,2013-02-02 10:46:00,
2013-02-02 05:51:00,17.6,16.2,30.01,SSE,164,0.0,0.0,94,0.00,,---,0.00,VWS V14.01,2013-02-02 10:51:00,
2013-02-02 05:56:00,17.7,16.3,30.01,SSE,164,0.0,0.0,94,0.00,,---,0.00,VWS V14.01,2013-02-02 10:56:00,
2013-02-02 06:01:00,17.7,16.3,30.01,South,172,0.0,0.0,94,0.00,,---,0.00,VWS V14.01,2013-02-02 11:01:00,
2013-02-02 06:06:00,17.8,16.4,30.01,South,172,0.0,0.0,94,0.00,,---,0.00,VWS V14.01,2013-02-02 11:06:00,
2013-02-02 06:11:00,17.9,16.5,30.01,South,172,0.0,0.0,94,0.00,,---,0.00,VWS V14.01,2013-02-02 11:11:00,
2013-02-02 06:16:00,17.9,16.5,30.01,South,172,0.0,0.0,94,0.00,,---,0.00,VWS V14.01,2013-02-02 11:16:00,
2013-02-02 06:21:00,18.0,16.6,30.01,South,172,0.0,0.0,94,0.00,,---,0.00,VWS V14.01,2013-02-02 11:21:00,
2013-02-02 06:26:00,18.0,16.6,30.01,South,172,0.0,0.0,94,0.00,,---,0.00,VWS V14.01,2013-02-02 11:26:00,
2013-02-02 06:31:00,18.1,16.7,30.00,South,172,0.0,0.0,94,0.00,,---,0.00,VWS V14.01,2013-02-02 11:31:00,
2013-02-02 06:36:00,18.1,16.7,30.00,South,172,0.0,0.0,94,0.00,,---,0.00,VWS V14.01,2013-02-02 11:36:00,
2013-02-02 06:41:00,18.2,16.8,30.00,South,172,0.0,0.0,94,0.00,,---,0.00,VWS V14.01,2013-02-02 11:41:00,
2013-02-02 06:46:00,18.2,16.8,30.00,South,172,0.0,0.0,94,0.00,,---,0.00,VWS V14.01,2013-02-02 11:46:00,
2013-02-02 06:51:00,18.2,16.8,30.00,South,172,0.0,0.0,94,0.00,,---,0.00,VWS V14.01,2013-02-02 11:51:00,
2013-02-02 06:56:00,18.2,16.8,30.00,South,172,0.0,0.0,94,0.00,,---,0.00,VWS V14.01,2013-02-02 11:56:00,
2013-02-02 07:01:00,18.3,16.9,30.00,South,172,0.0,0.0,94,0.00,,---,0.00,VWS V14.01,2013-02-02 12:01:00,
2013-02-02 07:06:00,18.3,16.9,30.00,South,172,0.0,0.0,94,0.00,,---,0.00,VWS V14.01,2013-02-02 12:06:00,
2013-02-02 07:11:00,18.3,16.9,30.00,South,172,0.0,0.0,94,0.00,,---,0.00,VWS V14.01,2013-02-02 12:11:00,
2013-02-02 07:16:00,18.4,17.2,29.99,South,172,0.0,0.0,95,0.00,,---,0.00,VWS V14.01,2013-02-02 12:16:00,
2013-02-02 07:21:00,18.4,17.2,29.99,South,172,0.0,0.0,95,0.00,,---,0.00,VWS V14.01,2013-02-02 12:21:00,
2013-02-02 07:26:00,18.4,17.2,29.99,South,172,0.0,0.0,95,0.00,,---,0.00,VWS V14.01,2013-02-02 12:26:00,
2013-02-02 07:31:00,18.5,17.3,29.99,South,172,0.0,0.0,95,0.00,,---,0.00,VWS V14.01,2013-02-02 12:31:00,
2013-02-02 07:36:00,18.5,17.1,29.99,South,172,0.0,0.0,94,0.00,,---,0.00,VWS V14.01,2013-02-02 12:36:00,
2013-02-02 07:41:00,18.6,17.4,29.99,South,172,0.0,0.0,95,0.00,,---,0.00,VWS V14.01,2013-02-02 12:41:00,
2013-02-02 07:46:00,18.6,17.4,29.98,South,172,0.0,0.0,95,0.00,,---,0.00,VWS V14.01,2013-02-02 12:46:00,
2013-02-02 07:51:00,18.6,17.4,29.98,South,172,0.0,0.0,95,0.00,,---,0.00,VWS V14.01,2013-02-02 12:51:00,
2013-02-02 07:55:00,18.6,17.4,29.98,South,172,0.0,0.0,95,0.00,,---,0.00,VWS V14.01,2013-02-02 12:55:00,
2013-02-02 08:01:00,18.7,17.5,29.98,South,172,0.0,0.0,95,0.00,,---,0.00,VWS V14.01,2013-02-02 13:01:00,
2013-02-02 08:06:00,18.8,17.6,29.98,South,172,0.0,0.0,95,0.00,,---,0.00,VWS V14.01,2013-02-02 13:06:00,
2013-02-02 08:10:00,18.8,17.6,29.98,South,172,0.0,0.0,95,0.00,,---,0.00,VWS V14.01,2013-02-02 13:10:00,
2013-02-02 08:15:00,18.8,17.6,29.98,South,172,0.0,0.0,95,0.00,,---,0.00,VWS V14.01,2013-02-02 13:15:00,
2013-02-02 08:20:00,18.9,17.7,29.98,South,172,0.0,0.0,95,0.00,,---,0.00,VWS V14.01,2013-02-02 13:20:00,
2013-02-02 08:25:00,18.9,17.7,29.98,South,172,0.0,0.0,95,0.00,,---,0.00,VWS V14.01,2013-02-02 13:25:00,
2013-02-02 08:30:00,19.0,17.8,29.98,South,172,0.0,0.0,95,0.00,,---,0.00,VWS V14.01,2013-02-02 13:30:00,
2013-02-02 08:35:00,19.0,17.8,29.98,South,172,0.0,0.0,95,0.00,,---,0.00,VWS V14.01,2013-02-02 13:35:00,
2013-02-02 08:40:00,19.1,17.9,29.98,South,172,0.0,0.0,95,0.00,,---,0.00,VWS V14.01,2013-02-02 13:40:00,
2013-02-02 08:45:00,19.1,17.9,29.98,South,172,0.0,0.0,95,0.00,,---,0.00,VWS V14.01,2013-02-02 13:45:00,
2013-02-02 08:50:00,19.3,18.1,29.98,South,172,0.0,0.0,95,0.00,,---,0.00,VWS V14.01,2013-02-02 13:50:00,
2013-02-02 08:55:00,19.3,18.1,29.98,South,172,0.0,0.0,95,0.00,,---,0.00,VWS V14.01,2013-02-02 13:55:00,
2013-02-02 09:00:00,19.4,18.2,29.98,South,172,0.0,0.0,95,0.00,,---,0.00,VWS V14.01,2013-02-02 14:00:00,
2013-02-02 09:05:00,19.5,18.3,29.98,South,172,0.0,0.0,95,0.00,,---,0.00,VWS V14.01,2013-02-02 14:05:00,
2013-02-02 09:10:00,19.6,18.4,29.98,South,172,0.0,0.0,95,0.00,,---,0.00,VWS V14.01,2013-02-02 14:10:00,
2013-02-02 09:15:00,19.7,18.5,29.98,South,172,0.0,0.0,95,0.00,,---,0.00,VWS V14.01,2013-02-02 14:15:00,
2013-02-02 09:20:00,19.9,18.7,29.98,South,172,0.0,0.0,95,0.00,,---,0.00,VWS V14.01,2013-02-02 14:20:00,
2013-02-02 09:25:00,20.0,18.8,29.98,South,172,0.0,0.0,95,0.00,,---,0.00,VWS V14.01,2013-02-02 14:25:00,
2013-02-02 09:30:00,20.1,18.9,29.98,South,172,0.0,0.0,95,0.00,,---,0.00,VWS V14.01,2013-02-02 14:30:00,
2013-02-02 09:35:00,20.2,19.0,29.98,South,172,0.0,0.0,95,0.00,,---,0.00,VWS V14.01,2013-02-02 14:35:00,
2013-02-02 09:40:00,20.3,19.1,29.98,South,172,0.0,0.0,95,0.00,,---,0.00,VWS V14.01,2013-02-02 14:40:00,
2013-02-02 09:45:00,20.4,19.2,29.97,South,172,0.0,0.0,95,0.00,,---,0.00,VWS V14.01,2013-02-02 14:45:00,
2013-02-02 09:50:00,20.5,19.3,29.97,South,172,0.0,0.0,95,0.00,,---,0.00,VWS V14.01,2013-02-02 14:50:00,
2013-02-02 09:55:00,20.7,19.5,29.97,South,172,0.0,0.0,95,0.00,,---,0.00,VWS V14.01,2013-02-02 14:55:00,
2013-02-02 10:00:00,20.8,19.6,29.96,South,172,0.0,0.0,95,0.00,,---,0.00,VWS V14.01,2013-02-02 15:00:00,
2013-02-02 10:05:00,20.9,19.7,29.96,South,172,0.0,0.0,95,0.00,,---,0.00,VWS V14.01,2013-02-02 15:05:00,
2013-02-02 10:10:00,21.1,19.9,29.96,South,172,0.0,0.0,95,0.00,,---,0.00,VWS V14.01,2013-02-02 15:10:00,
2013-02-02 10:15:00,21.2,20.0,29.96,South,172,0.0,0.0,95,0.00,,---,0.00,VWS V14.01,2013-02-02 15:15:00,
2013-02-02 10:20:00,21.4,20.2,29.96,South,172,0.0,0.0,95,0.00,,---,0.00,VWS V14.01,2013-02-02 15:20:00,
2013-02-02 10:25:00,21.7,20.5,29.96,South,172,0.0,0.0,95,0.00,,---,0.00,VWS V14.01,2013-02-02 15:25:00,
2013-02-02 10:30:00,21.9,20.7,29.95,South,172,0.0,0.0,95,0.00,,---,0.00,VWS V14.01,2013-02-02 15:30:00,
2013-02-02 10:35:00,22.1,20.9,29.95,South,172,0.0,0.0,95,0.00,,---,0.00,VWS V14.01,2013-02-02 15:35:00,
2013-02-02 10:40:00,22.2,21.0,29.95,South,172,0.0,0.0,95,0.00,,---,0.00,VWS V14.01,2013-02-02 15:40:00,
2013-02-02 10:45:00,22.5,21.3,29.94,South,172,0.0,0.0,95,0.00,,---,0.00,VWS V14.01,2013-02-02 15:45:00,
2013-02-02 10:50:00,22.8,21.3,29.94,South,172,0.0,0.0,94,0.00,,---,0.00,VWS V14.01,2013-02-02 15:50:00,
2013-02-02 10:55:00,23.0,21.5,29.94,South,172,0.0,0.0,94,0.00,,---,0.00,VWS V14.01,2013-02-02 15:55:00,
2013-02-02 11:00:00,23.2,21.7,29.94,South,172,0.0,0.0,94,0.00,,---,0.00,VWS V14.01,2013-02-02 16:00:00,
2013-02-02 11:05:00,23.4,21.9,29.94,South,173,0.0,0.0,94,0.00,,---,0.00,VWS V14.01,2013-02-02 16:05:00,
2013-02-02 11:10:00,23.5,21.8,29.94,South,173,0.0,0.0,93,0.00,,---,0.00,VWS V14.01,2013-02-02 16:10:00,
2013-02-02 11:15:00,23.6,21.9,29.93,South,173,0.0,0.0,93,0.00,,---,0.00,VWS V14.01,2013-02-02 16:15:00,
2013-02-02 11:20:00,23.8,22.1,29.93,South,173,0.0,0.0,93,0.00,,---,0.00,VWS V14.01,2013-02-02 16:20:00,
2013-02-02 11:25:00,23.9,22.2,29.93,South,174,0.0,0.0,93,0.00,,---,0.00,VWS V14.01,2013-02-02 16:25:00,
2013-02-02 11:30:00,24.0,22.3,29.93,South,174,0.0,0.0,93,0.00,,---,0.00,VWS V14.01,2013-02-02 16:30:00,
2013-02-02 11:35:00,24.2,22.5,29.93,South,174,0.0,0.0,93,0.00,,---,0.00,VWS V14.01,2013-02-02 16:35:00,
2013-02-02 11:40:00,24.2,22.2,29.93,WSW,250,0.0,1.0,92,0.00,,---,0.00,VWS V14.01,2013-02-02 16:40:00,
2013-02-02 11:45:00,24.2,22.2,29.93,SSW,212,0.0,0.0,92,0.00,,---,0.00,VWS V14.01,2013-02-02 16:45:00,
2013-02-02 11:50:00,24.3,22.3,29.93,SW,214,0.0,0.0,92,0.00,,---,0.00,VWS V14.01,2013-02-02 16:50:00,
2013-02-02 11:55:00,24.3,22.3,29.93,SSW,203,0.0,0.0,92,0.00,,---,0.00,VWS V14.01,2013-02-02 16:55:00,
2013-02-02 12:00:00,24.3,22.3,29.93,WSW,254,0.0,0.0,92,0.00,,---,0.00,VWS V14.01,2013-02-02 17:00:00,
2013-02-02 12:05:00,24.3,22.3,29.93,WSW,251,0.0,0.0,92,0.00,,---,0.00,VWS V14.01,2013-02-02 17:05:00,
2013-02-02 12:10:00,24.3,22.3,29.93,SSE,168,0.0,0.0,92,0.00,,---,0.00,VWS V14.01,2013-02-02 17:10:00,
2013-02-02 12:15:00,24.4,22.4,29.91,SW,232,0.0,0.0,92,0.00,,---,0.00,VWS V14.01,2013-02-02 17:15:00,
2013-02-02 12:20:00,24.6,22.6,29.91,West,278,3.0,3.0,92,0.00,,---,0.00,VWS V14.01,2013-02-02 17:20:00,
2013-02-02 12:25:00,24.7,22.7,29.91,WSW,242,0.0,0.0,92,0.00,,---,0.00,VWS V14.01,2013-02-02 17:25:00,
2013-02-02 12:30:00,24.8,22.8,29.91,SW,233,0.0,0.0,92,0.00,,---,0.00,VWS V14.01,2013-02-02 17:30:00,
2013-02-02 12:35:00,24.8,22.8,29.91,SSW,213,0.0,0.0,92,0.00,,---,0.00,VWS V14.01,2013-02-02 17:35:00,
2013-02-02 12:40:00,24.8,22.5,29.91,WSW,256,0.0,0.0,91,0.00,,---,0.00,VWS V14.01,2013-02-02 17:40:00,
2013-02-02 12:45:00,24.8,22.5,29.90,WSW,245,0.0,0.0,91,0.00,,---,0.00,VWS V14.01,2013-02-02 17:45:00,
2013-02-02 12:50:00,24.9,22.9,29.90,SW,226,0.0,0.0,92,0.00,,---,0.00,VWS V14.01,2013-02-02 17:50:00,
2013-02-02 12:55:00,25.0,23.0,29.90,WSW,244,0.0,1.0,92,0.00,,---,0.00,VWS V14.01,2013-02-02 17:55:00,
2013-02-02 13:00:00,25.1,23.1,29.90,SSW,206,0.0,0.0,92,0.00,,---,0.00,VWS V14.01,2013-02-02 18:00:00,
2013-02-02 13:05:00,25.2,23.2,29.90,WSW,244,0.0,0.0,92,0.00,,---,0.00,VWS V14.01,2013-02-02 18:05:00,
2013-02-02 13:10:00,25.2,23.2,29.90,SW,234,0.0,1.0,92,0.00,,---,0.00,VWS V14.01,2013-02-02 18:10:00,
2013-02-02 13:15:00,25.2,23.2,29.89,WSW,257,0.0,0.0,92,0.00,,---,0.00,VWS V14.01,2013-02-02 18:15:00,
2013-02-02 13:20:00,25.2,23.2,29.89,WSW,244,0.0,0.0,92,0.00,,---,0.00,VWS V14.01,2013-02-02 18:20:00,
2013-02-02 13:25:00,25.3,23.3,29.89,West,261,0.0,0.0,92,0.00,,---,0.00,VWS V14.01,2013-02-02 18:25:00,
2013-02-02 13:30:00,25.4,23.4,29.89,West,261,0.0,0.0,92,0.00,,---,0.00,VWS V14.01,2013-02-02 18:30:00,
2013-02-02 13:35:00,25.5,23.8,29.89,West,261,0.0,0.0,93,0.00,,---,0.00,VWS V14.01,2013-02-02 18:35:00,
2013-02-02 13:40:00,25.7,24.0,29.89,West,277,0.0,0.0,93,0.00,,---,0.00,VWS V14.01,2013-02-02 18:40:00,
2013-02-02 13:45:00,25.9,24.2,29.89,West,268,0.0,0.0,93,0.00,,---,0.00,VWS V14.01,2013-02-02 18:45:00,
2013-02-02 13:50:00,26.1,24.4,29.89,WNW,302,0.0,0.0,93,0.00,,---,0.00,VWS V14.01,2013-02-02 18:50:00,
2013-02-02 13:55:00,25.7,24.0,29.89,NW,314,0.0,0.0,93,0.00,,---,0.00,VWS V14.01,2013-02-02 18:55:00,
2013-02-02 14:00:00,24.7,22.5,29.90,NW,308,0.0,2.0,91,0.00,,---,0.00,VWS V14.01,2013-02-02 19:00:00,
2013-02-02 14:05:00,23.7,21.5,29.90,NNW,338,0.0,1.0,91,0.00,,---,0.00,VWS V14.01,2013-02-02 19:05:00,
2013-02-02 14:10:00,23.1,20.9,29.90,NW,319,0.0,0.0,91,0.00,,---,0.00,VWS V14.01,2013-02-02 19:10:00,
2013-02-02 14:15:00,22.7,20.7,29.90,NW,314,0.0,3.0,92,0.00,,---,0.00,VWS V14.01,2013-02-02 19:15:00,
2013-02-02 14:20:00,22.6,20.6,29.90,North,357,0.0,5.0,92,0.00,,---,0.00,VWS V14.01,2013-02-02 19:20:00,
2013-02-02 14:25:00,22.6,20.6,29.90,WNW,300,0.0,1.0,92,0.00,,---,0.00,VWS V14.01,2013-02-02 19:25:00,
2013-02-02 14:30:00,22.5,20.5,29.90,NW,307,0.0,0.0,92,0.00,,---,0.00,VWS V14.01,2013-02-02 19:30:00,
2013-02-02 14:35:00,22.4,20.4,29.90,NW,308,2.0,3.0,92,0.00,,---,0.00,VWS V14.01,2013-02-02 19:35:00,
2013-02-02 14:40:00,22.5,20.5,29.90,WNW,297,0.0,3.0,92,0.00,,---,0.00,VWS V14.01,2013-02-02 19:40:00,
2013-02-02 14:45:00,22.5,20.3,29.91,NNW,331,0.0,0.0,91,0.00,,---,0.00,VWS V14.01,2013-02-02 19:45:00,
2013-02-02 14:50:00,22.6,20.1,29.91,North,8,0.0,0.0,90,0.00,,---,0.00,VWS V14.01,2013-02-02 19:50:00,
2013-02-02 14:55:00,22.5,19.8,29.91,NW,326,0.0,3.0,89,0.00,,---,0.00,VWS V14.01,2013-02-02 19:55:00,
2013-02-02 15:00:00,22.5,19.8,29.91,NNW,330,0.0,3.0,89,0.00,,---,0.00,VWS V14.01,2013-02-02 20:00:00,
2013-02-02 15:05:00,22.5,19.8,29.91,NNW,330,0.0,0.0,89,0.00,,---,0.00,VWS V14.01,2013-02-02 20:05:00,
2013-02-02 15:10:00,22.6,19.9,29.91,NNW,328,0.0,1.0,89,0.00,,---,0.00,VWS V14.01,2013-02-02 20:10:00,
2013-02-02 15:15:00,22.6,19.6,29.91,NNW,327,0.0,2.0,88,0.00,,---,0.00,VWS V14.01,2013-02-02 20:15:00,
2013-02-02 15:20:00,22.6,19.3,29.91,WNW,301,0.0,3.0,87,0.00,,---,0.00,VWS V14.01,2013-02-02 20:20:00,
2013-02-02 15:25:00,22.7,19.4,29.91,WNW,302,0.0,0.0,87,0.00,,---,0.00,VWS V14.01,2013-02-02 20:25:00,
2013-02-02 15:30:00,22.6,19.0,29.91,North,354,2.0,3.0,86,0.00,,---,0.00,VWS V14.01,2013-02-02 20:30:00,
2013-02-02 15:35:00,22.5,18.7,29.91,NNW,331,0.0,3.0,85,0.00,,---,0.00,VWS V14.01,2013-02-02 20:35:00,
2013-02-02 15:40:00,22.3,18.5,29.91,NW,304,0.0,2.0,85,0.00,,---,0.00,VWS V14.01,2013-02-02 20:40:00,
2013-02-02 15:45:00,22.1,18.3,29.91,NW,309,0.0,2.0,85,0.00,,---,0.00,VWS V14.01,2013-02-02 20:45:00,
2013-02-02 15:50:00,22.0,18.2,29.91,NNW,334,0.0,3.0,85,0.00,,---,0.00,VWS V14.01,2013-02-02 20:50:00,
2013-02-02 15:55:00,21.9,18.1,29.91,NW,316,0.0,2.0,85,0.00,,---,0.00,VWS V14.01,2013-02-02 20:55:00,
2013-02-02 16:00:00,21.8,18.0,29.92,North,359,0.0,2.0,85,0.00,,---,0.00,VWS V14.01,2013-02-02 21:00:00,
2013-02-02 16:05:00,21.8,18.0,29.92,WNW,302,0.0,1.0,85,0.00,,---,0.00,VWS V14.01,2013-02-02 21:05:00,
2013-02-02 16:10:00,21.8,18.0,29.92,NW,304,0.0,2.0,85,0.00,,---,0.00,VWS V14.01,2013-02-02 21:10:00,
2013-02-02 16:15:00,21.7,17.9,29.92,NW,311,0.0,2.0,85,0.00,,---,0.00,VWS V14.01,2013-02-02 21:15:00,
2013-02-02 16:20:00,21.6,17.8,29.92,NW,309,0.0,1.0,85,0.00,,---,0.00,VWS V14.01,2013-02-02 21:20:00,
2013-02-02 16:25:00,21.5,17.7,29.92,NW,309,0.0,2.0,85,0.00,,---,0.00,VWS V14.01,2013-02-02 21:25:00,
2013-02-02 16:30:00,21.6,17.8,29.93,NW,309,0.0,1.0,85,0.00,,---,0.00,VWS V14.01,2013-02-02 21:30:00,
2013-02-02 16:35:00,21.6,17.8,29.93,NW,309,0.0,0.0,85,0.00,,---,0.00,VWS V14.01,2013-02-02 21:35:00,
2013-02-02 16:40:00,21.6,17.8,29.93,NW,309,0.0,0.0,85,0.00,,---,0.00,VWS V14.01,2013-02-02 21:40:00,
2013-02-02 16:45:00,21.7,17.9,29.94,NW,309,0.0,0.0,85,0.00,,---,0.00,VWS V14.01,2013-02-02 21:45:00,
2013-02-02 16:50:00,21.6,17.8,29.94,NW,309,0.0,1.0,85,0.00,,---,0.00,VWS V14.01,2013-02-02 21:50:00,
2013-02-02 16:55:00,21.5,17.4,29.94,NW,309,0.0,1.0,84,0.00,,---,0.00,VWS V14.01,2013-02-02 21:55:00,
2013-02-02 17:00:00,21.3,17.0,29.94,NW,309,0.0,0.0,83,0.00,,---,0.00,VWS V14.01,2013-02-02 22:00:00,
2013-02-02 17:05:00,21.1,17.0,29.94,NW,309,1.0,1.0,84,0.00,,---,0.00,VWS V14.01,2013-02-02 22:05:00,
2013-02-02 17:10:00,20.9,16.8,29.94,NW,309,0.0,2.0,84,0.00,,---,0.00,VWS V14.01,2013-02-02 22:10:00,
2013-02-02 17:15:00,20.8,16.7,29.94,NW,309,0.0,1.0,84,0.00,,---,0.00,VWS V14.01,2013-02-02 22:15:00,
2013-02-02 17:20:00,20.6,16.8,29.94,NW,309,0.0,1.0,85,0.00,,---,0.00,VWS V14.01,2013-02-02 22:20:00,
2013-02-02 17:25:00,20.4,16.6,29.94,NW,310,1.0,1.0,85,0.00,,---,0.00,VWS V14.01,2013-02-02 22:25:00,
2013-02-02 17:30:00,20.3,16.8,29.95,NW,310,0.0,1.0,86,0.00,,---,0.00,VWS V14.01,2013-02-02 22:30:00,
2013-02-02 17:35:00,20.2,16.7,29.95,NW,311,1.0,4.0,86,0.00,,---,0.00,VWS V14.01,2013-02-02 22:35:00,
2013-02-02 17:40:00,20.0,16.8,29.95,NW,311,0.0,1.0,87,0.00,,---,0.00,VWS V14.01,2013-02-02 22:40:00,
2013-02-02 17:45:00,19.8,16.6,29.95,NW,311,0.0,1.0,87,0.00,,---,0.00,VWS V14.01,2013-02-02 22:45:00,
2013-02-02 17:50:00,19.6,16.1,29.95,NW,311,0.0,3.0,86,0.00,,---,0.00,VWS V14.01,2013-02-02 22:50:00,
2013-02-02 17:55:00,19.4,15.9,29.95,NW,311,0.0,0.0,86,0.00,,---,0.00,VWS V14.01,2013-02-02 22:55:00,
2013-02-02 18:00:00,19.2,15.4,29.96,NW,311,0.0,1.0,85,0.00,,---,0.00,VWS V14.01,2013-02-02 23:00:00,
2013-02-02 18:05:00,19.0,15.2,29.96,NW,311,0.0,1.0,85,0.00,,---,0.00,VWS V14.01,2013-02-02 23:05:00,
2013-02-02 18:10:00,18.8,15.1,29.96,NW,311,0.0,2.0,85,0.00,,---,0.00,VWS V14.01,2013-02-02 23:10:00,
2013-02-02 18:15:00,18.7,14.9,29.96,NW,311,0.0,1.0,85,0.00,,---,0.00,VWS V14.01,2013-02-02 23:15:00,
2013-02-02 18:20:00,18.5,15.0,29.96,NW,311,0.0,1.0,86,0.00,,---,0.00,VWS V14.01,2013-02-02 23:20:00,
2013-02-02 18:25:00,18.4,14.9,29.96,NW,311,0.0,2.0,86,0.00,,---,0.00,VWS V14.01,2013-02-02 23:25:00,
2013-02-02 18:30:00,18.3,14.8,29.97,NW,311,0.0,0.0,86,0.00,,---,0.00,VWS V14.01,2013-02-02 23:30:00,
2013-02-02 18:35:00,18.2,14.7,29.97,NW,311,0.0,0.0,86,0.00,,---,0.00,VWS V14.01,2013-02-02 23:35:00,
2013-02-02 18:40:00,18.1,14.6,29.97,NW,311,0.0,1.0,86,0.00,,---,0.00,VWS V14.01,2013-02-02 23:40:00,
2013-02-02 18:45:00,18.1,14.9,29.97,NW,311,0.0,0.0,87,0.00,,---,0.00,VWS V14.01,2013-02-02 23:45:00,
2013-02-02 18:50:00,18.0,14.8,29.97,NW,311,0.0,0.0,87,0.00,,---,0.00,VWS V14.01,2013-02-02 23:50:00,
2013-02-02 18:55:00,18.0,14.8,29.97,NW,311,0.0,0.0,87,0.00,,---,0.00,VWS V14.01,2013-02-02 23:55:00,
2013-02-02 19:00:00,17.9,14.7,29.97,NW,311,0.0,0.0,87,0.00,,---,0.00,VWS V14.01,2013-02-03 00:00:00,
2013-02-02 19:05:00,17.9,14.7,29.97,NW,311,0.0,0.0,87,0.00,,---,0.00,VWS V14.01,2013-02-03 00:05:00,
2013-02-02 19:10:00,17.9,14.7,29.97,NW,311,0.0,0.0,87,0.00,,---,0.00,VWS V14.01,2013-02-03 00:10:00,
2013-02-02 19:15:00,17.8,14.6,29.97,NW,311,0.0,0.0,87,0.00,,---,0.00,VWS V14.01,2013-02-03 00:15:00,
2013-02-02 19:20:00,17.7,14.5,29.97,NW,311,0.0,0.0,87,0.00,,---,0.00,VWS V14.01,2013-02-03 00:20:00,
2013-02-02 19:25:00,17.7,14.5,29.97,NW,311,0.0,0.0,87,0.00,,---,0.00,VWS V14.01,2013-02-03 00:25:00,
2013-02-02 19:30:00,17.6,14.4,29.97,NW,311,0.0,0.0,87,0.00,,---,0.00,VWS V14.01,2013-02-03 00:30:00,
2013-02-02 19:35:00,17.6,14.4,29.97,NW,311,0.0,0.0,87,0.00,,---,0.00,VWS V14.01,2013-02-03 00:35:00,
2013-02-02 19:40:00,17.5,14.3,29.97,NW,311,0.0,0.0,87,0.00,,---,0.00,VWS V14.01,2013-02-03 00:40:00,
2013-02-02 19:45:00,17.5,14.3,29.97,NW,311,0.0,0.0,87,0.00,,---,0.00,VWS V14.01,2013-02-03 00:45:00,
2013-02-02 19:50:00,17.4,14.2,29.97,NW,311,0.0,0.0,87,0.00,,---,0.00,VWS V14.01,2013-02-03 00:50:00,
2013-02-02 19:55:00,17.4,14.2,29.97,NW,311,0.0,0.0,87,0.00,,---,0.00,VWS V14.01,2013-02-03 00:55:00,
2013-02-02 20:00:00,17.3,14.1,29.97,NW,311,0.0,0.0,87,0.00,,---,0.00,VWS V14.01,2013-02-03 01:00:00,
2013-02-02 20:05:00,17.3,14.4,29.97,NW,311,0.0,0.0,88,0.00,,---,0.00,VWS V14.01,2013-02-03 01:05:00,
2013-02-02 20:10:00,17.2,14.3,29.97,NW,311,0.0,0.0,88,0.00,,---,0.00,VWS V14.01,2013-02-03 01:10:00,
2013-02-02 20:15:00,17.2,14.3,29.98,NW,311,0.0,0.0,88,0.00,,---,0.00,VWS V14.01,2013-02-03 01:15:00,
2013-02-02 20:20:00,17.2,14.3,29.98,NW,311,0.0,0.0,88,0.00,,---,0.00,VWS V14.01,2013-02-03 01:20:00,
2013-02-02 20:25:00,17.2,14.3,29.98,NW,311,0.0,0.0,88,0.00,,---,0.00,VWS V14.01,2013-02-03 01:25:00,
2013-02-02 20:30:00,17.1,14.2,29.99,NW,311,0.0,0.0,88,0.00,,---,0.00,VWS V14.01,2013-02-03 01:30:00,
2013-02-02 20:35:00,17.1,14.2,29.99,NW,311,0.0,0.0,88,0.00,,---,0.00,VWS V14.01,2013-02-03 01:35:00,
2013-02-02 20:40:00,17.1,13.9,29.99,NW,311,0.0,0.0,87,0.00,,---,0.00,VWS V14.01,2013-02-03 01:40:00,
2013-02-02 20:45:00,17.0,13.8,29.99,NW,311,0.0,0.0,87,0.00,,---,0.00,VWS V14.01,2013-02-03 01:45:00,
2013-02-02 20:50:00,17.0,13.8,29.99,NW,311,0.0,0.0,87,0.00,,---,0.00,VWS V14.01,2013-02-03 01:50:00,
2013-02-02 20:55:00,17.0,13.8,29.99,NW,311,0.0,0.0,87,0.00,,---,0.00,VWS V14.01,2013-02-03 01:55:00,
2013-02-02 21:00:00,16.9,13.7,29.99,NW,311,0.0,0.0,87,0.00,,---,0.00,VWS V14.01,2013-02-03 02:00:00,
2013-02-02 21:05:00,16.9,13.7,29.99,NW,311,0.0,0.0,87,0.00,,---,0.00,VWS V14.01,2013-02-03 02:05:00,
2013-02-02 21:10:00,16.8,13.6,29.99,NW,311,0.0,0.0,87,0.00,,---,0.00,VWS V14.01,2013-02-03 02:10:00,
2013-02-02 21:15:00,16.8,13.4,29.99,NW,311,0.0,1.0,86,0.00,,---,0.00,VWS V14.01,2013-02-03 02:15:00,
2013-02-02 21:20:00,16.8,13.4,29.99,NW,311,0.0,0.0,86,0.00,,---,0.00,VWS V14.01,2013-02-03 02:20:00,
2013-02-02 21:25:00,16.8,13.4,29.99,NW,311,0.0,0.0,86,0.00,,---,0.00,VWS V14.01,2013-02-03 02:25:00,
2013-02-02 21:30:00,16.8,13.4,29.99,NW,311,0.0,0.0,86,0.00,,---,0.00,VWS V14.01,2013-02-03 02:30:00,
2013-02-02 21:35:00,16.7,13.2,29.99,NW,311,0.0,0.0,86,0.00,,---,0.00,VWS V14.01,2013-02-03 02:35:00,
2013-02-02 21:40:00,16.7,13.0,29.99,NW,311,0.0,0.0,85,0.00,,---,0.00,VWS V14.01,2013-02-03 02:40:00,
2013-02-02 21:45:00,16.6,12.9,29.99,NW,311,0.0,0.0,85,0.00,,---,0.00,VWS V14.01,2013-02-03 02:45:00,
2013-02-02 21:50:00,16.6,12.9,29.99,NW,311,0.0,0.0,85,0.00,,---,0.00,VWS V14.01,2013-02-03 02:50:00,
2013-02-02 21:55:00,16.6,12.9,29.99,NW,311,0.0,0.0,85,0.00,,---,0.00,VWS V14.01,2013-02-03 02:55:00,
2013-02-02 22:00:00,16.6,12.9,29.98,NW,311,0.0,0.0,85,0.00,,---,0.00,VWS V14.01,2013-02-03 03:00:00,
2013-02-02 22:05:00,16.5,12.8,29.98,NW,311,0.0,0.0,85,0.00,,---,0.00,VWS V14.01,2013-02-03 03:05:00,
2013-02-02 22:10:00,16.5,12.5,29.98,NW,311,0.0,0.0,84,0.00,,---,0.00,VWS V14.01,2013-02-03 03:10:00,
2013-02-02 22:15:00,16.4,12.7,29.97,NW,311,0.0,0.0,85,0.00,,---,0.00,VWS V14.01,2013-02-03 03:15:00,
2013-02-02 22:20:00,16.4,12.7,29.97,NW,311,0.0,0.0,85,0.00,,---,0.00,VWS V14.01,2013-02-03 03:20:00,
2013-02-02 22:25:00,16.4,12.7,29.97,NW,311,0.0,0.0,85,0.00,,---,0.00,VWS V14.01,2013-02-03 03:25:00,
2013-02-02 22:30:00,16.4,12.7,29.97,NW,311,0.0,0.0,85,0.00,,---,0.00,VWS V14.01,2013-02-03 03:30:00,
2013-02-02 22:34:00,16.3,12.6,29.97,NW,311,0.0,0.0,85,0.00,,---,0.00,VWS V14.01,2013-02-03 03:34:00,
2013-02-02 22:39:00,16.3,12.6,29.97,NW,311,0.0,0.0,85,0.00,,---,0.00,VWS V14.01,2013-02-03 03:39:00,
2013-02-02 22:44:00,16.3,12.6,29.97,NW,311,0.0,0.0,85,0.00,,---,0.00,VWS V14.01,2013-02-03 03:44:00,
2013-02-02 22:49:00,16.3,12.9,29.97,NW,311,0.0,0.0,86,0.00,,---,0.00,VWS V14.01,2013-02-03 03:49:00,
2013-02-02 22:54:00,16.2,12.8,29.97,NW,311,0.0,0.0,86,0.00,,---,0.00,VWS V14.01,2013-02-03 03:54:00,
2013-02-02 22:59:00,16.2,12.8,29.96,NW,311,0.0,0.0,86,0.00,,---,0.00,VWS V14.01,2013-02-03 03:59:00,
2013-02-02 23:04:00,16.2,12.8,29.96,NW,311,0.0,0.0,86,0.00,,---,0.00,VWS V14.01,2013-02-03 04:04:00,
2013-02-02 23:09:00,16.1,12.7,29.96,NW,311,0.0,0.0,86,0.00,,---,0.00,VWS V14.01,2013-02-03 04:09:00,
2013-02-02 23:14:00,16.1,12.7,29.96,NW,311,0.0,0.0,86,0.00,,---,0.00,VWS V14.01,2013-02-03 04:14:00,
2013-02-02 23:19:00,16.0,12.3,29.96,NW,311,0.0,0.0,85,0.00,,---,0.00,VWS V14.01,2013-02-03 04:19:00,
2013-02-02 23:24:00,15.9,12.2,29.96,NW,311,0.0,0.0,85,0.00,,---,0.00,VWS V14.01,2013-02-03 04:24:00,
2013-02-02 23:29:00,15.9,12.2,29.95,NW,311,0.0,0.0,85,0.00,,---,0.00,VWS V14.01,2013-02-03 04:29:00,
2013-02-02 23:34:00,15.9,12.2,29.95,NW,311,0.0,0.0,85,0.00,,---,0.00,VWS V14.01,2013-02-03 04:34:00,
2013-02-02 23:39:00,15.9,12.2,29.95,NW,311,0.0,0.0,85,0.00,,---,0.00,VWS V14.01,2013-02-03 04:39:00,
2013-02-02 23:44:00,15.9,12.2,29.95,NW,311,0.0,0.0,85,0.00,,---,0.00,VWS V14.01,2013-02-03 04:44:00,
2013-02-02 23:49:00,15.8,12.1,29.95,NW,311,0.0,0.0,85,0.00,,---,0.00,VWS V14.01,2013-02-03 04:49:00,
2013-02-02 23:54:00,15.8,12.1,29.95,NW,311,0.0,0.0,85,0.00,,---,0.00,VWS V14.01,2013-02-03 04:54:00,
2013-02-02 23:59:00,15.8,12.4,29.95,NW,311,0.0,0.0,86,0.00,,---,0.00,VWS V14.01,2013-02-03 04:59:00,